sensor_id;sensor_type;location;lat;lon;timestamp;pressure;altitude;pressure_sealevel;temperature;humidity
19811;BME280;10065;49.632;8.346;2023-08-24T00:00:32;100691.09;;;23.91;53.80
19811;BME280;10065;49.632;8.346;2023-08-24T00:03:00;100678.59;;;23.90;53.58
19811;BME280;10065;49.632;8.346;2023-08-24T00:05:33;100679.41;;;23.91;53.31
19811;BME280;10065;49.632;8.346;2023-08-24T00:08:00;100674.22;;;23.89;53.35
19811;BME280;10065;49.632;8.346;2023-08-24T00:10:30;100670.91;;;23.87;53.72
19811;BME280;10065;49.632;8.346;2023-08-24T00:12:58;100671.38;;;23.84;53.72
19811;BME280;10065;49.632;8.346;2023-08-24T00:15:25;100665.59;;;23.81;53.54
19811;BME280;10065;49.632;8.346;2023-08-24T00:17:53;100658.53;;;23.80;53.20
19811;BME280;10065;49.632;8.346;2023-08-24T00:20:21;100654.78;;;23.81;52.99
19811;BME280;10065;49.632;8.346;2023-08-24T00:22:49;100652.28;;;23.79;53.02
19811;BME280;10065;49.632;8.346;2023-08-24T00:25:17;100653.56;;;23.77;53.45
19811;BME280;10065;49.632;8.346;2023-08-24T00:27:46;100648.16;;;23.77;53.19
19811;BME280;10065;49.632;8.346;2023-08-24T00:30:15;100657.31;;;23.76;53.19
19811;BME280;10065;49.632;8.346;2023-08-24T00:32:43;100673.56;;;23.76;53.08
19811;BME280;10065;49.632;8.346;2023-08-24T00:35:11;100675.72;;;23.74;52.26
19811;BME280;10065;49.632;8.346;2023-08-24T00:37:39;100684.50;;;23.69;52.09
19811;BME280;10065;49.632;8.346;2023-08-24T00:40:08;100696.84;;;23.65;51.93
19811;BME280;10065;49.632;8.346;2023-08-24T00:42:39;100699.63;;;23.58;52.07
19811;BME280;10065;49.632;8.346;2023-08-24T00:45:10;100697.53;;;23.60;51.88
19811;BME280;10065;49.632;8.346;2023-08-24T00:47:40;100694.16;;;23.65;52.03
19811;BME280;10065;49.632;8.346;2023-08-24T00:50:09;100687.09;;;23.64;51.48
19811;BME280;10065;49.632;8.346;2023-08-24T00:52:38;100692.28;;;23.66;51.37
19811;BME280;10065;49.632;8.346;2023-08-24T00:55:08;100678.47;;;23.67;51.43
19811;BME280;10065;49.632;8.346;2023-08-24T00:57:37;100682.03;;;23.68;51.42
19811;BME280;10065;49.632;8.346;2023-08-24T01:00:06;100687.91;;;23.65;51.76
19811;BME280;10065;49.632;8.346;2023-08-24T01:02:38;100679.78;;;23.65;51.17
19811;BME280;10065;49.632;8.346;2023-08-24T01:05:06;100690.38;;;23.66;51.63
19811;BME280;10065;49.632;8.346;2023-08-24T01:07:36;100691.19;;;23.67;51.81
19811;BME280;10065;49.632;8.346;2023-08-24T01:10:06;100676.03;;;23.66;51.67
19811;BME280;10065;49.632;8.346;2023-08-24T01:12:46;100688.75;;;23.65;52.15
19811;BME280;10065;49.632;8.346;2023-08-24T01:15:19;100691.06;;;23.61;52.59
19811;BME280;10065;49.632;8.346;2023-08-24T01:17:52;100691.06;;;23.61;52.26
19811;BME280;10065;49.632;8.346;2023-08-24T01:20:20;100694.81;;;23.60;52.45
19811;BME280;10065;49.632;8.346;2023-08-24T01:22:54;100701.88;;;23.61;52.85
19811;BME280;10065;49.632;8.346;2023-08-24T01:25:32;100698.22;;;23.56;52.83
19811;BME280;10065;49.632;8.346;2023-08-24T01:28:05;100693.03;;;23.54;52.87
19811;BME280;10065;49.632;8.346;2023-08-24T01:30:33;100691.38;;;23.53;52.87
19811;BME280;10065;49.632;8.346;2023-08-24T01:33:02;100696.41;;;23.50;53.19
19811;BME280;10065;49.632;8.346;2023-08-24T01:35:31;100695.81;;;23.48;53.12
19811;BME280;10065;49.632;8.346;2023-08-24T01:37:59;100695.81;;;23.48;53.20
19811;BME280;10065;49.632;8.346;2023-08-24T01:40:35;100694.59;;;23.44;53.20
19811;BME280;10065;49.632;8.346;2023-08-24T01:43:09;100695.84;;;23.41;53.03
19811;BME280;10065;49.632;8.346;2023-08-24T01:45:38;100694.19;;;23.40;52.88
19811;BME280;10065;49.632;8.346;2023-08-24T01:48:12;100686.09;;;23.40;53.27
19811;BME280;10065;49.632;8.346;2023-08-24T01:50:40;100693.63;;;23.38;53.64
19811;BME280;10065;49.632;8.346;2023-08-24T01:53:09;100682.41;;;23.35;53.61
19811;BME280;10065;49.632;8.346;2023-08-24T01:55:37;100674.75;;;23.32;53.86
19811;BME280;10065;49.632;8.346;2023-08-24T01:58:04;100678.75;;;23.29;53.79
19811;BME280;10065;49.632;8.346;2023-08-24T02:00:33;100671.69;;;23.28;53.93
19811;BME280;10065;49.632;8.346;2023-08-24T02:03:01;100665.66;;;23.26;54.02
19811;BME280;10065;49.632;8.346;2023-08-24T02:05:29;100668.38;;;23.26;53.74
19811;BME280;10065;49.632;8.346;2023-08-24T02:07:57;100678.59;;;23.24;53.98
19811;BME280;10065;49.632;8.346;2023-08-24T02:10:26;100671.28;;;23.24;54.01
19811;BME280;10065;49.632;8.346;2023-08-24T02:12:54;100661.75;;;23.22;53.74
19811;BME280;10065;49.632;8.346;2023-08-24T02:15:21;100666.94;;;23.23;53.68
19811;BME280;10065;49.632;8.346;2023-08-24T02:17:50;100661.75;;;23.22;54.05
19811;BME280;10065;49.632;8.346;2023-08-24T02:20:18;100664.22;;;23.23;54.37
19811;BME280;10065;49.632;8.346;2023-08-24T02:22:47;100656.34;;;23.22;53.98
19811;BME280;10065;49.632;8.346;2023-08-24T02:25:14;100658.69;;;23.18;54.02
19811;BME280;10065;49.632;8.346;2023-08-24T02:27:42;100660.56;;;23.18;53.97
19811;BME280;10065;49.632;8.346;2023-08-24T02:30:11;100657.25;;;23.16;54.22
19811;BME280;10065;49.632;8.346;2023-08-24T02:32:39;100650.78;;;23.17;54.53
19811;BME280;10065;49.632;8.346;2023-08-24T02:35:09;100652.06;;;23.14;54.61
19811;BME280;10065;49.632;8.346;2023-08-24T02:37:37;100658.16;;;23.10;54.64
19811;BME280;10065;49.632;8.346;2023-08-24T02:40:06;100656.50;;;23.09;54.52
19811;BME280;10065;49.632;8.346;2023-08-24T02:42:35;100641.94;;;23.10;54.53
19811;BME280;10065;49.632;8.346;2023-08-24T02:45:04;100645.06;;;23.07;54.95
19811;BME280;10065;49.632;8.346;2023-08-24T02:47:31;100647.63;;;23.02;55.46
19811;BME280;10065;49.632;8.346;2023-08-24T02:49:59;100648.69;;;23.01;55.37
19811;BME280;10065;49.632;8.346;2023-08-24T02:52:28;100647.03;;;23.00;55.73
19811;BME280;10065;49.632;8.346;2023-08-24T02:54:56;100653.50;;;22.99;55.61
19811;BME280;10065;49.632;8.346;2023-08-24T02:57:24;100653.94;;;22.96;55.48
19811;BME280;10065;49.632;8.346;2023-08-24T02:59:51;100654.41;;;22.93;55.87
19811;BME280;10065;49.632;8.346;2023-08-24T03:02:19;100651.47;;;22.94;56.32
19811;BME280;10065;49.632;8.346;2023-08-24T03:04:47;100642.06;;;22.97;56.04
19811;BME280;10065;49.632;8.346;2023-08-24T03:07:14;100636.44;;;22.98;56.26
19811;BME280;10065;49.632;8.346;2023-08-24T03:09:44;100619.84;;;22.95;56.71
19811;BME280;10065;49.632;8.346;2023-08-24T03:12:11;100598.06;;;22.89;57.46
19811;BME280;10065;49.632;8.346;2023-08-24T03:14:39;100585.44;;;22.83;58.38
19811;BME280;10065;49.632;8.346;2023-08-24T03:17:07;100559.47;;;22.82;59.66
19811;BME280;10065;49.632;8.346;2023-08-24T03:19:35;100556.16;;;22.80;59.81
19811;BME280;10065;49.632;8.346;2023-08-24T03:22:03;100556.00;;;22.75;60.03
19811;BME280;10065;49.632;8.346;2023-08-24T03:24:30;100548.31;;;22.72;60.79
19811;BME280;10065;49.632;8.346;2023-08-24T03:26:59;100544.44;;;22.68;60.48
19811;BME280;10065;49.632;8.346;2023-08-24T03:29:27;100545.47;;;22.67;60.87
19811;BME280;10065;49.632;8.346;2023-08-24T03:31:55;100544.47;;;22.62;61.54
19811;BME280;10065;49.632;8.346;2023-08-24T03:34:22;100555.22;;;22.68;61.42
19811;BME280;10065;49.632;8.346;2023-08-24T03:36:50;100549.97;;;22.73;62.29
19811;BME280;10065;49.632;8.346;2023-08-24T03:39:18;100555.59;;;22.72;62.55
19811;BME280;10065;49.632;8.346;2023-08-24T03:41:45;100565.16;;;22.74;61.93
19811;BME280;10065;49.632;8.346;2023-08-24T03:44:14;100570.34;;;22.76;62.10
19811;BME280;10065;49.632;8.346;2023-08-24T03:46:42;100558.25;;;22.78;62.67
19811;BME280;10065;49.632;8.346;2023-08-24T03:49:10;100562.38;;;22.81;61.86
19811;BME280;10065;49.632;8.346;2023-08-24T03:51:38;100555.72;;;22.83;61.64
19811;BME280;10065;49.632;8.346;2023-08-24T03:54:05;100564.44;;;22.85;62.00
19811;BME280;10065;49.632;8.346;2023-08-24T03:56:33;100549.25;;;22.84;62.20
19811;BME280;10065;49.632;8.346;2023-08-24T03:59:01;100547.94;;;22.87;61.92
19811;BME280;10065;49.632;8.346;2023-08-24T04:01:30;100554.78;;;22.89;61.96
19811;BME280;10065;49.632;8.346;2023-08-24T04:03:58;100549.38;;;22.89;61.76
19811;BME280;10065;49.632;8.346;2023-08-24T04:06:27;100551.88;;;22.91;61.91
19811;BME280;10065;49.632;8.346;2023-08-24T04:08:55;100547.50;;;22.90;61.95
19811;BME280;10065;49.632;8.346;2023-08-24T04:11:22;100547.28;;;22.92;61.88
19811;BME280;10065;49.632;8.346;2023-08-24T04:13:50;100541.88;;;22.92;61.97
19811;BME280;10065;49.632;8.346;2023-08-24T04:16:18;100547.28;;;22.92;62.31
19811;BME280;10065;49.632;8.346;2023-08-24T04:18:47;100552.69;;;22.92;62.07
19811;BME280;10065;49.632;8.346;2023-08-24T04:21:15;100551.88;;;22.91;61.87
19811;BME280;10065;49.632;8.346;2023-08-24T04:23:43;100549.38;;;22.89;61.82
19811;BME280;10065;49.632;8.346;2023-08-24T04:26:11;100540.22;;;22.91;62.12
19811;BME280;10065;49.632;8.346;2023-08-24T04:28:39;100548.78;;;22.87;61.90
19811;BME280;10065;49.632;8.346;2023-08-24T04:31:08;100547.38;;;22.85;62.08
19811;BME280;10065;49.632;8.346;2023-08-24T04:33:36;100547.44;;;22.78;62.33
19811;BME280;10065;49.632;8.346;2023-08-24T04:36:05;100550.13;;;22.78;62.66
19811;BME280;10065;49.632;8.346;2023-08-24T04:38:33;100546.16;;;22.81;62.43
19811;BME280;10065;49.632;8.346;2023-08-24T04:41:01;100546.78;;;22.83;62.49
19811;BME280;10065;49.632;8.346;2023-08-24T04:43:28;100545.34;;;22.80;62.83
19811;BME280;10065;49.632;8.346;2023-08-24T04:45:56;100554.50;;;22.79;63.17
19811;BME280;10065;49.632;8.346;2023-08-24T04:48:25;100548.50;;;22.77;62.73
19811;BME280;10065;49.632;8.346;2023-08-24T04:50:53;100545.34;;;22.80;63.15
19811;BME280;10065;49.632;8.346;2023-08-24T04:53:24;100550.75;;;22.80;63.92
19811;BME280;10065;49.632;8.346;2023-08-24T04:55:52;100554.97;;;22.76;64.01
19811;BME280;10065;49.632;8.346;2023-08-24T04:58:20;100563.47;;;22.73;63.91
19811;BME280;10065;49.632;8.346;2023-08-24T05:00:48;100563.69;;;22.72;63.87
19811;BME280;10065;49.632;8.346;2023-08-24T05:03:16;100567.00;;;22.74;64.01
19811;BME280;10065;49.632;8.346;2023-08-24T05:05:44;100572.63;;;22.72;64.18
19811;BME280;10065;49.632;8.346;2023-08-24T05:08:12;100593.22;;;22.73;64.17
19811;BME280;10065;49.632;8.346;2023-08-24T05:10:41;100613.81;;;22.74;64.88
19811;BME280;10065;49.632;8.346;2023-08-24T05:13:09;100629.81;;;22.76;64.56
19811;BME280;10065;49.632;8.346;2023-08-24T05:15:37;100642.69;;;22.74;64.84
19811;BME280;10065;49.632;8.346;2023-08-24T05:18:05;100656.84;;;22.76;65.21
19811;BME280;10065;49.632;8.346;2023-08-24T05:20:33;100666.38;;;22.78;64.91
19811;BME280;10065;49.632;8.346;2023-08-24T05:23:00;100681.13;;;22.82;64.62
19811;BME280;10065;49.632;8.346;2023-08-24T05:25:28;100698.16;;;22.83;64.09
19811;BME280;10065;49.632;8.346;2023-08-24T05:27:57;100699.81;;;22.84;64.00
19811;BME280;10065;49.632;8.346;2023-08-24T05:30:25;100716.41;;;22.87;63.90
19811;BME280;10065;49.632;8.346;2023-08-24T05:32:55;100729.50;;;22.91;63.71
19811;BME280;10065;49.632;8.346;2023-08-24T05:35:23;100723.66;;;22.94;63.60
19811;BME280;10065;49.632;8.346;2023-08-24T05:37:54;100731.31;;;22.97;63.54
19811;BME280;10065;49.632;8.346;2023-08-24T05:40:21;100735.22;;;23.01;63.45
19811;BME280;10065;49.632;8.346;2023-08-24T05:42:49;100736.88;;;23.02;64.06
19811;BME280;10065;49.632;8.346;2023-08-24T05:45:18;100726.44;;;23.05;64.12
19811;BME280;10065;49.632;8.346;2023-08-24T05:47:46;100714.34;;;23.08;64.14
19811;BME280;10065;49.632;8.346;2023-08-24T05:50:14;100711.66;;;23.08;64.07
19811;BME280;10065;49.632;8.346;2023-08-24T05:52:41;100707.66;;;23.10;64.30
19811;BME280;10065;49.632;8.346;2023-08-24T05:55:09;100710.16;;;23.12;64.98
19811;BME280;10065;49.632;8.346;2023-08-24T05:57:37;100701.00;;;23.13;64.79
19811;BME280;10065;49.632;8.346;2023-08-24T06:00:06;100697.69;;;23.11;64.97
19811;BME280;10065;49.632;8.346;2023-08-24T06:02:39;100696.84;;;23.10;65.25
19811;BME280;10065;49.632;8.346;2023-08-24T06:05:07;100688.75;;;23.10;65.22
19811;BME280;10065;49.632;8.346;2023-08-24T06:07:35;100678.53;;;23.12;65.09
19811;BME280;10065;49.632;8.346;2023-08-24T06:10:04;100664.75;;;23.14;65.41
19811;BME280;10065;49.632;8.346;2023-08-24T06:12:32;100664.75;;;23.14;64.98
19811;BME280;10065;49.632;8.346;2023-08-24T06:15:00;100669.72;;;23.17;65.00
19811;BME280;10065;49.632;8.346;2023-08-24T06:17:30;100658.59;;;23.25;64.51
19811;BME280;10065;49.632;8.346;2023-08-24T06:19:59;100646.28;;;23.29;64.24
19811;BME280;10065;49.632;8.346;2023-08-24T06:22:27;100636.28;;;23.30;63.97
19811;BME280;10065;49.632;8.346;2023-08-24T06:24:55;100627.56;;;23.27;63.95
19811;BME280;10065;49.632;8.346;2023-08-24T06:27:26;100626.28;;;23.30;64.78
19811;BME280;10065;49.632;8.346;2023-08-24T06:29:54;100625.00;;;23.33;64.60
19811;BME280;10065;49.632;8.346;2023-08-24T06:32:21;100620.19;;;23.35;64.70
19811;BME280;10065;49.632;8.346;2023-08-24T06:34:49;100622.06;;;23.34;64.19
19811;BME280;10065;49.632;8.346;2023-08-24T06:37:18;100613.34;;;23.32;63.71
19811;BME280;10065;49.632;8.346;2023-08-24T06:39:46;100625.38;;;23.36;63.96
19811;BME280;10065;49.632;8.346;2023-08-24T06:42:14;100620.78;;;23.37;63.87
19811;BME280;10065;49.632;8.346;2023-08-24T06:44:41;100625.50;;;23.41;63.63
19811;BME280;10065;49.632;8.346;2023-08-24T06:47:09;100628.81;;;23.43;63.62
19811;BME280;10065;49.632;8.346;2023-08-24T06:49:37;100625.00;;;23.51;63.49
19811;BME280;10065;49.632;8.346;2023-08-24T06:52:05;100618.31;;;23.53;63.63
19811;BME280;10065;49.632;8.346;2023-08-24T06:54:34;100616.31;;;23.60;63.21
19811;BME280;10065;49.632;8.346;2023-08-24T06:57:01;100614.56;;;23.66;63.39
19811;BME280;10065;49.632;8.346;2023-08-24T06:59:30;100607.88;;;23.69;63.20
19811;BME280;10065;49.632;8.346;2023-08-24T07:01:57;100603.06;;;23.71;63.33
19811;BME280;10065;49.632;8.346;2023-08-24T07:04:26;100603.19;;;23.76;63.04
19811;BME280;10065;49.632;8.346;2023-08-24T07:06:54;100605.88;;;23.76;62.80
19811;BME280;10065;49.632;8.346;2023-08-24T07:09:22;100610.25;;;23.77;62.67
19811;BME280;10065;49.632;8.346;2023-08-24T07:11:51;100603.94;;;23.83;63.17
19811;BME280;10065;49.632;8.346;2023-08-24T07:14:19;100603.81;;;23.89;63.43
19811;BME280;10065;49.632;8.346;2023-08-24T07:16:47;100603.34;;;23.92;62.97
19811;BME280;10065;49.632;8.346;2023-08-24T07:19:14;100603.84;;;24.01;63.31
19811;BME280;10065;49.632;8.346;2023-08-24T07:21:43;100598.91;;;24.10;64.33
19811;BME280;10065;49.632;8.346;2023-08-24T07:24:11;100608.31;;;24.19;63.77
19811;BME280;10065;49.632;8.346;2023-08-24T07:26:40;100617.44;;;24.24;63.03
19811;BME280;10065;49.632;8.346;2023-08-24T07:29:09;100636.53;;;24.29;62.54
19811;BME280;10065;49.632;8.346;2023-08-24T07:31:37;100656.09;;;24.31;62.28
19811;BME280;10065;49.632;8.346;2023-08-24T07:34:05;100643.84;;;24.29;62.04
19811;BME280;10065;49.632;8.346;2023-08-24T07:36:33;100640.28;;;24.28;62.32
19811;BME280;10065;49.632;8.346;2023-08-24T07:39:00;100644.31;;;24.26;62.90
19811;BME280;10065;49.632;8.346;2023-08-24T07:41:28;100648.91;;;24.25;62.23
19811;BME280;10065;49.632;8.346;2023-08-24T07:43:56;100655.00;;;24.21;62.59
19811;BME280;10065;49.632;8.346;2023-08-24T07:46:25;100645.91;;;24.15;62.25
19811;BME280;10065;49.632;8.346;2023-08-24T07:48:53;100655.09;;;24.14;63.14
19811;BME280;10065;49.632;8.346;2023-08-24T07:51:21;100645.78;;;24.10;62.74
19811;BME280;10065;49.632;8.346;2023-08-24T07:53:48;100636.84;;;24.10;62.89
19811;BME280;10065;49.632;8.346;2023-08-24T07:56:18;100622.69;;;24.08;63.68
19811;BME280;10065;49.632;8.346;2023-08-24T07:58:46;100604.41;;;24.03;63.68
19811;BME280;10065;49.632;8.346;2023-08-24T08:01:13;100584.41;;;24.04;63.79
19811;BME280;10065;49.632;8.346;2023-08-24T08:03:42;100565.00;;;24.07;62.80
19811;BME280;10065;49.632;8.346;2023-08-24T08:06:10;100548.63;;;24.14;62.47
19811;BME280;10065;49.632;8.346;2023-08-24T08:08:39;100525.41;;;24.18;62.22
19811;BME280;10065;49.632;8.346;2023-08-24T08:11:07;100508.72;;;24.21;61.82
19811;BME280;10065;49.632;8.346;2023-08-24T08:13:35;100505.13;;;24.20;62.53
19811;BME280;10065;49.632;8.346;2023-08-24T08:16:04;100492.44;;;24.21;62.41
19811;BME280;10065;49.632;8.346;2023-08-24T08:18:32;100490.34;;;24.23;60.92
19811;BME280;10065;49.632;8.346;2023-08-24T08:21:08;100491.16;;;24.23;61.38
19811;BME280;10065;49.632;8.346;2023-08-24T08:23:36;100491.03;;;24.30;61.47
19811;BME280;10065;49.632;8.346;2023-08-24T08:26:04;100493.97;;;24.40;61.03
19811;BME280;10065;49.632;8.346;2023-08-24T08:28:32;100496.91;;;24.38;61.11
19811;BME280;10065;49.632;8.346;2023-08-24T08:31:01;100511.28;;;24.39;60.90
19811;BME280;10065;49.632;8.346;2023-08-24T08:33:29;100514.59;;;24.41;61.03
19811;BME280;10065;49.632;8.346;2023-08-24T08:35:57;100519.13;;;24.64;60.48
19811;BME280;10065;49.632;8.346;2023-08-24T08:38:27;100521.78;;;24.99;59.23
19811;BME280;10065;49.632;8.346;2023-08-24T08:40:56;100514.44;;;25.11;58.84
19811;BME280;10065;49.632;8.346;2023-08-24T08:43:29;100524.53;;;25.16;59.18
19811;BME280;10065;49.632;8.346;2023-08-24T08:45:58;100521.59;;;25.17;59.17
19811;BME280;10065;49.632;8.346;2023-08-24T08:48:28;100524.50;;;25.27;59.54
19811;BME280;10065;49.632;8.346;2023-08-24T08:50:58;100524.53;;;25.44;58.59
19811;BME280;10065;49.632;8.346;2023-08-24T08:53:29;100516.19;;;25.62;58.15
19811;BME280;10065;49.632;8.346;2023-08-24T08:55:57;100504.38;;;25.85;57.80
19811;BME280;10065;49.632;8.346;2023-08-24T08:58:31;100501.69;;;26.07;56.42
19811;BME280;10065;49.632;8.346;2023-08-24T09:00:59;100490.16;;;26.33;55.37
19811;BME280;10065;49.632;8.346;2023-08-24T09:03:31;100486.09;;;26.57;55.01
19811;BME280;10065;49.632;8.346;2023-08-24T09:05:59;100466.88;;;26.86;54.03
19811;BME280;10065;49.632;8.346;2023-08-24T09:08:28;100463.22;;;27.24;52.34
19811;BME280;10065;49.632;8.346;2023-08-24T09:10:58;100440.25;;;27.47;52.15
19811;BME280;10065;49.632;8.346;2023-08-24T09:13:26;100442.72;;;27.80;50.95
19811;BME280;10065;49.632;8.346;2023-08-24T09:15:53;100428.38;;;27.95;51.00
19811;BME280;10065;49.632;8.346;2023-08-24T09:18:21;100439.06;;;28.06;51.23
19811;BME280;10065;49.632;8.346;2023-08-24T09:20:49;100434.81;;;28.21;50.84
19811;BME280;10065;49.632;8.346;2023-08-24T09:23:17;100431.06;;;28.37;50.01
19811;BME280;10065;49.632;8.346;2023-08-24T09:25:48;100421.31;;;28.46;49.73
19811;BME280;10065;49.632;8.346;2023-08-24T09:28:22;100418.09;;;28.64;49.84
19811;BME280;10065;49.632;8.346;2023-08-24T09:30:52;100407.22;;;28.74;49.89
19811;BME280;10065;49.632;8.346;2023-08-24T09:33:21;100415.97;;;28.87;49.55
19811;BME280;10065;49.632;8.346;2023-08-24T09:35:53;100413.28;;;29.02;49.04
19811;BME280;10065;49.632;8.346;2023-08-24T09:38:22;100419.84;;;29.16;49.25
19811;BME280;10065;49.632;8.346;2023-08-24T09:40:53;100401.03;;;29.35;47.12
19811;BME280;10065;49.632;8.346;2023-08-24T09:43:22;100402.63;;;29.31;47.66
19811;BME280;10065;49.632;8.346;2023-08-24T09:45:50;100399.66;;;29.27;47.35
19811;BME280;10065;49.632;8.346;2023-08-24T09:48:19;100400.75;;;29.26;47.14
19811;BME280;10065;49.632;8.346;2023-08-24T09:50:50;100392.81;;;29.25;47.36
19811;BME280;10065;49.632;8.346;2023-08-24T09:53:19;100391.44;;;29.22;47.96
19811;BME280;10065;49.632;8.346;2023-08-24T09:55:59;100382.16;;;29.23;48.49
19811;BME280;10065;49.632;8.346;2023-08-24T09:58:28;100369.63;;;29.27;47.81
19811;BME280;10065;49.632;8.346;2023-08-24T10:00:56;100370.72;;;29.41;48.44
19811;BME280;10065;49.632;8.346;2023-08-24T10:03:25;100373.97;;;29.59;47.88
19811;BME280;10065;49.632;8.346;2023-08-24T10:05:55;100365.16;;;29.87;46.62
19811;BME280;10065;49.632;8.346;2023-08-24T10:08:35;100358.25;;;30.15;46.02
19811;BME280;10065;49.632;8.346;2023-08-24T10:11:06;100360.69;;;30.21;45.30
19811;BME280;10065;49.632;8.346;2023-08-24T10:13:43;100351.72;;;30.11;45.01
19811;BME280;10065;49.632;8.346;2023-08-24T10:16:16;100344.13;;;29.98;45.10
19811;BME280;10065;49.632;8.346;2023-08-24T10:18:45;100351.47;;;29.92;45.40
19811;BME280;10065;49.632;8.346;2023-08-24T10:21:14;100353.69;;;29.85;45.41
19811;BME280;10065;49.632;8.346;2023-08-24T10:23:43;100344.97;;;29.78;45.59
19811;BME280;10065;49.632;8.346;2023-08-24T10:26:14;100335.69;;;29.79;46.00
19811;BME280;10065;49.632;8.346;2023-08-24T10:28:44;100343.31;;;29.77;46.39
19811;BME280;10065;49.632;8.346;2023-08-24T10:31:13;100347.66;;;29.83;45.99
19811;BME280;10065;49.632;8.346;2023-08-24T10:33:41;100350.13;;;29.84;45.86
19811;BME280;10065;49.632;8.346;2023-08-24T10:36:12;100336.16;;;29.91;45.07
19811;BME280;10065;49.632;8.346;2023-08-24T10:38:41;100329.09;;;29.85;45.37
19811;BME280;10065;49.632;8.346;2023-08-24T10:41:10;100316.47;;;30.04;44.58
19811;BME280;10065;49.632;8.346;2023-08-24T10:43:49;100309.22;;;30.34;44.65
19811;BME280;10065;49.632;8.346;2023-08-24T10:46:17;100301.44;;;30.51;43.68
19811;BME280;10065;49.632;8.346;2023-08-24T10:48:57;100299.88;;;30.35;43.27
19811;BME280;10065;49.632;8.346;2023-08-24T10:51:26;100299.38;;;30.27;43.89
19811;BME280;10065;49.632;8.346;2023-08-24T10:53:56;100298.34;;;30.23;43.25
19811;BME280;10065;49.632;8.346;2023-08-24T10:56:33;100295.88;;;31.58;41.08
19811;BME280;10065;49.632;8.346;2023-08-24T10:59:13;100291.19;;;33.46;35.99
19811;BME280;10065;49.632;8.346;2023-08-24T11:01:42;100292.44;;;33.67;36.28
19811;BME280;10065;49.632;8.346;2023-08-24T11:04:10;100287.03;;;36.07;31.49
19811;BME280;10065;49.632;8.346;2023-08-24T11:06:52;100291.28;;;36.13;30.55
19811;BME280;10065;49.632;8.346;2023-08-24T11:09:20;100287.59;;;34.63;32.99
19811;BME280;10065;49.632;8.346;2023-08-24T11:11:56;100291.50;;;33.44;35.63
19811;BME280;10065;49.632;8.346;2023-08-24T11:14:26;100295.78;;;32.72;36.10
19811;BME280;10065;49.632;8.346;2023-08-24T11:16:57;100281.44;;;33.53;35.33
19811;BME280;10065;49.632;8.346;2023-08-24T11:19:25;100266.19;;;35.05;32.49
19811;BME280;10065;49.632;8.346;2023-08-24T11:21:53;100266.59;;;35.52;31.87
19811;BME280;10065;49.632;8.346;2023-08-24T11:24:22;100255.88;;;35.19;32.32
19811;BME280;10065;49.632;8.346;2023-08-24T11:26:50;100256.31;;;34.37;36.22
19811;BME280;10065;49.632;8.346;2023-08-24T11:29:19;100254.06;;;33.48;34.81
19811;BME280;10065;49.632;8.346;2023-08-24T11:31:48;100248.94;;;32.82;37.29
19811;BME280;10065;49.632;8.346;2023-08-24T11:34:16;100257.44;;;32.29;39.50
19811;BME280;10065;49.632;8.346;2023-08-24T11:36:45;100253.22;;;32.18;39.91
19811;BME280;10065;49.632;8.346;2023-08-24T11:39:17;100242.84;;;31.49;41.77
19811;BME280;10065;49.632;8.346;2023-08-24T11:41:57;100239.84;;;30.92;43.58
19811;BME280;10065;49.632;8.346;2023-08-24T11:44:25;100235.19;;;30.59;44.88
19811;BME280;10065;49.632;8.346;2023-08-24T11:46:57;100232.16;;;30.21;45.92
19811;BME280;10065;49.632;8.346;2023-08-24T11:49:26;100230.09;;;29.93;46.70
19811;BME280;10065;49.632;8.346;2023-08-24T11:51:54;100224.19;;;29.81;47.25
19811;BME280;10065;49.632;8.346;2023-08-24T11:54:23;100226.38;;;29.74;48.47
19811;BME280;10065;49.632;8.346;2023-08-24T11:56:51;100223.91;;;29.77;48.58
19811;BME280;10065;49.632;8.346;2023-08-24T11:59:20;100230.19;;;29.78;48.83
19811;BME280;10065;49.632;8.346;2023-08-24T12:01:48;100220.31;;;29.82;49.21
19811;BME280;10065;49.632;8.346;2023-08-24T12:04:17;100224.09;;;29.91;48.48
19811;BME280;10065;49.632;8.346;2023-08-24T12:06:45;100226.03;;;29.96;48.84
19811;BME280;10065;49.632;8.346;2023-08-24T12:09:12;100221.41;;;29.86;49.44
19811;BME280;10065;49.632;8.346;2023-08-24T12:11:41;100220.38;;;29.72;49.95
19811;BME280;10065;49.632;8.346;2023-08-24T12:14:17;100225.06;;;29.61;50.05
19811;BME280;10065;49.632;8.346;2023-08-24T12:16:45;100224.28;;;29.50;50.73
19811;BME280;10065;49.632;8.346;2023-08-24T12:19:13;100212.81;;;29.48;50.85
19811;BME280;10065;49.632;8.346;2023-08-24T12:21:44;100202.97;;;29.52;50.84
19811;BME280;10065;49.632;8.346;2023-08-24T12:24:13;100189.88;;;29.49;50.32
19811;BME280;10065;49.632;8.346;2023-08-24T12:26:42;100178.16;;;29.44;50.15
19811;BME280;10065;49.632;8.346;2023-08-24T12:29:10;100175.75;;;29.37;50.31
19811;BME280;10065;49.632;8.346;2023-08-24T12:31:42;100172.16;;;29.32;50.85
19811;BME280;10065;49.632;8.346;2023-08-24T12:34:10;100175.75;;;29.27;50.53
19811;BME280;10065;49.632;8.346;2023-08-24T12:36:38;100178.47;;;29.22;50.13
19811;BME280;10065;49.632;8.346;2023-08-24T12:39:11;100177.41;;;29.18;50.42
19811;BME280;10065;49.632;8.346;2023-08-24T12:41:40;100170.59;;;29.15;50.63
19811;BME280;10065;49.632;8.346;2023-08-24T12:44:08;100162.13;;;29.12;50.93
19811;BME280;10065;49.632;8.346;2023-08-24T12:46:39;100173.34;;;29.05;50.83
19811;BME280;10065;49.632;8.346;2023-08-24T12:49:08;100188.66;;;29.01;50.62
19811;BME280;10065;49.632;8.346;2023-08-24T12:51:35;100185.91;;;28.96;50.24
19811;BME280;10065;49.632;8.346;2023-08-24T12:54:04;100181.84;;;28.94;50.78
19811;BME280;10065;49.632;8.346;2023-08-24T12:56:35;100178.56;;;28.92;50.78
19811;BME280;10065;49.632;8.346;2023-08-24T12:59:03;100162.19;;;28.92;51.55